createdAt,value
2023-03-12T00:00:42.164Z,93.50
2023-03-12T00:03:06.664Z,93.30
2023-03-12T00:05:32.454Z,93.40
2023-03-12T00:07:59.824Z,93.50
2023-03-12T00:10:24.214Z,93.50
2023-03-12T00:12:48.654Z,93.20
2023-03-12T00:15:14.005Z,93.50
2023-03-12T00:17:38.700Z,93.40
2023-03-12T00:20:03.611Z,93.50
2023-03-12T00:22:29.894Z,93.20
2023-03-12T00:24:55.272Z,93.40
2023-03-12T00:27:19.627Z,93.30
2023-03-12T00:29:43.988Z,93.30
2023-03-12T00:32:09.343Z,93.20
2023-03-12T00:34:33.658Z,93.60
2023-03-12T00:36:58.066Z,93.30
2023-03-12T00:39:23.849Z,93.30
2023-03-12T00:41:48.280Z,93.70
2023-03-12T00:44:12.598Z,93.90
2023-03-12T00:46:37.038Z,93.90
2023-03-12T00:49:01.373Z,94.20
2023-03-12T00:51:25.996Z,94.10
2023-03-12T00:53:50.611Z,94.10
2023-03-12T00:56:16.651Z,94.40
2023-03-12T00:58:42.775Z,94.50
2023-03-12T01:01:08.648Z,94.40
2023-03-12T01:03:33.032Z,94.20
2023-03-12T01:05:57.492Z,94.40
2023-03-12T01:08:22.770Z,94.20
2023-03-12T01:10:47.366Z,94.30
2023-03-12T01:13:13.245Z,94.60
2023-03-12T01:15:37.642Z,94.50
2023-03-12T01:18:02.032Z,94.30
2023-03-12T01:20:26.556Z,94.60
2023-03-12T01:22:51.134Z,94.70
2023-03-12T01:25:15.615Z,95.10
2023-03-12T01:27:40.031Z,95.20
2023-03-12T01:30:10.109Z,95.00
2023-03-12T01:32:35.044Z,95.40
2023-03-12T01:35:00.343Z,95.50
2023-03-12T01:37:24.828Z,95.80
2023-03-12T01:39:49.196Z,95.70
2023-03-12T01:42:14.638Z,95.40
2023-03-12T01:44:56.587Z,95.50
2023-03-12T01:47:22.852Z,95.70
2023-03-12T01:49:49.418Z,96.00
2023-03-12T01:52:16.114Z,96.30
2023-03-12T01:54:51.819Z,96.60
2023-03-12T01:57:22.061Z,96.50
2023-03-12T01:59:49.869Z,97.10
2023-03-12T02:02:18.735Z,96.90
2023-03-12T02:04:47.705Z,97.00
2023-03-12T02:07:14.429Z,97.00
2023-03-12T02:09:42.102Z,96.80
2023-03-12T02:12:07.647Z,97.30
2023-03-12T02:14:32.613Z,97.30
2023-03-12T02:16:57.582Z,97.50
2023-03-12T02:19:30.262Z,97.50
2023-03-12T02:21:56.321Z,97.60
2023-03-12T02:24:31.738Z,97.30
2023-03-12T02:26:57.894Z,97.60
2023-03-12T02:29:23.317Z,97.50
2023-03-12T02:31:53.231Z,97.70
2023-03-12T02:34:17.711Z,97.60
2023-03-12T02:36:42.164Z,98.10
2023-03-12T02:39:06.950Z,98.20
2023-03-12T02:41:34.317Z,98.10
2023-03-12T02:44:05.576Z,98.50
2023-03-12T02:46:34.812Z,98.40
2023-03-12T02:49:02.023Z,98.00
2023-03-12T02:51:26.430Z,97.90
2023-03-12T02:53:54.896Z,97.90
2023-03-12T02:56:19.777Z,98.20
2023-03-12T02:58:44.751Z,98.60
2023-03-12T03:01:10.900Z,98.80
2023-03-12T03:03:35.705Z,98.80
2023-03-12T03:06:00.114Z,99.00
2023-03-12T03:08:27.274Z,98.80
2023-03-12T03:10:52.786Z,99.30
2023-03-12T03:13:17.653Z,98.90
2023-03-12T03:15:42.088Z,99.50
2023-03-12T03:18:08.356Z,98.60
2023-03-12T03:20:33.392Z,98.70
2023-03-12T03:22:57.781Z,98.60
2023-03-12T03:25:23.656Z,98.60
2023-03-12T03:27:48.405Z,98.10
2023-03-12T03:30:13.604Z,98.50
2023-03-12T03:32:41.798Z,98.60
2023-03-12T03:35:10.061Z,98.90
2023-03-12T03:37:34.447Z,98.60
2023-03-12T03:39:58.995Z,98.80
2023-03-12T03:42:23.879Z,98.50
2023-03-12T03:44:48.265Z,99.00
2023-03-12T03:47:12.967Z,98.60
2023-03-12T03:49:37.578Z,98.60
2023-03-12T03:52:03.428Z,98.60
2023-03-12T03:54:33.918Z,98.60
2023-03-12T03:56:59.008Z,98.60
2023-03-12T03:59:23.421Z,98.60
2023-03-12T04:01:48.086Z,98.40
2023-03-12T04:04:12.785Z,98.70
2023-03-12T04:06:37.496Z,98.70
2023-03-12T04:09:03.488Z,98.40
2023-03-12T04:11:31.912Z,98.30
2023-03-12T04:13:58.302Z,98.20
2023-03-12T04:16:26.572Z,98.80
2023-03-12T04:18:52.204Z,99.10
2023-03-12T04:21:16.967Z,99.50
2023-03-12T04:23:42.626Z,99.70
2023-03-12T04:26:10.699Z,99.70
2023-03-12T04:28:35.829Z,99.70
2023-03-12T04:31:03.008Z,99.60
2023-03-12T04:33:35.734Z,99.90
2023-03-12T04:36:01.244Z,99.90
2023-03-12T04:38:27.417Z,99.90
2023-03-12T04:40:59.971Z,99.90
2023-03-12T04:43:27.548Z,99.70
2023-03-12T04:45:51.995Z,99.90
2023-03-12T04:48:16.789Z,99.90
2023-03-12T04:50:41.966Z,99.40
2023-03-12T04:53:06.510Z,99.30
2023-03-12T04:55:31.141Z,99.90
2023-03-12T04:57:55.645Z,98.70
2023-03-12T05:00:24.968Z,98.00
2023-03-12T05:02:49.544Z,98.00
2023-03-12T05:05:14.669Z,96.90
2023-03-12T05:07:39.713Z,96.30
2023-03-12T05:10:04.447Z,96.30
2023-03-12T05:12:29.381Z,96.90
2023-03-12T05:14:53.784Z,96.30
2023-03-12T05:17:19.595Z,95.60
2023-03-12T05:19:44.459Z,93.80
2023-03-12T05:22:09.171Z,94.10
2023-03-12T05:24:34.677Z,94.00
2023-03-12T05:27:00.383Z,94.00
2023-03-12T05:29:25.632Z,94.10
2023-03-12T05:31:51.969Z,94.40
2023-03-12T05:34:17.968Z,94.30
2023-03-12T05:36:43.216Z,94.20
2023-03-12T05:39:08.754Z,94.80
2023-03-12T05:41:33.622Z,95.00
2023-03-12T05:44:04.283Z,94.30
2023-03-12T05:46:29.328Z,94.40
2023-03-12T05:48:55.521Z,94.80
2023-03-12T05:51:22.316Z,94.60
2023-03-12T05:53:48.474Z,94.40
2023-03-12T05:56:15.056Z,95.70
2023-03-12T05:58:40.106Z,95.40
2023-03-12T06:01:05.059Z,94.80
2023-03-12T06:03:29.812Z,93.60
2023-03-12T06:05:56.448Z,92.50
2023-03-12T06:08:23.116Z,92.40
2023-03-12T06:10:47.984Z,91.60
2023-03-12T06:13:12.414Z,91.50
2023-03-12T06:15:37.231Z,90.30
2023-03-12T06:18:03.311Z,90.40
2023-03-12T06:20:27.901Z,90.30
2023-03-12T06:22:54.127Z,89.60
2023-03-12T06:25:20.118Z,89.70
2023-03-12T06:27:44.589Z,89.40
2023-03-12T06:30:10.789Z,89.90
2023-03-12T06:32:35.181Z,89.70
2023-03-12T06:35:00.863Z,89.10
2023-03-12T06:37:27.289Z,90.10
2023-03-12T06:39:52.342Z,89.60
2023-03-12T06:42:19.671Z,89.80
2023-03-12T06:44:44.074Z,90.50
2023-03-12T06:47:08.560Z,90.10
2023-03-12T06:49:35.780Z,90.00
2023-03-12T06:52:00.219Z,90.30
2023-03-12T06:54:24.675Z,90.70
2023-03-12T06:56:49.135Z,91.00
2023-03-12T06:59:15.070Z,91.40
2023-03-12T07:01:39.590Z,91.50
2023-03-12T07:04:04.124Z,91.80
2023-03-12T07:06:28.620Z,91.50
2023-03-12T07:08:54.634Z,91.30
2023-03-12T07:11:19.245Z,90.70
2023-03-12T07:13:43.764Z,90.60
2023-03-12T07:16:11.667Z,91.20
2023-03-12T07:18:36.408Z,93.50
2023-03-12T07:21:02.048Z,89.80
2023-03-12T07:23:27.796Z,90.60
2023-03-12T07:25:52.505Z,90.90
2023-03-12T07:28:18.269Z,90.80
2023-03-12T07:30:43.179Z,90.60
2023-03-12T07:33:12.107Z,90.70
2023-03-12T07:35:36.831Z,91.20
2023-03-12T07:38:03.098Z,91.80
2023-03-12T07:40:30.204Z,92.40
2023-03-12T07:42:54.720Z,92.80
2023-03-12T07:45:19.819Z,93.00
2023-03-12T07:47:44.812Z,93.60
2023-03-12T07:50:12.307Z,93.70
2023-03-12T07:52:36.883Z,93.90
2023-03-12T07:55:01.374Z,93.60
2023-03-12T07:57:27.735Z,94.00
2023-03-12T07:59:52.459Z,94.30
2023-03-12T08:02:17.131Z,94.20
2023-03-12T08:04:41.888Z,93.90
2023-03-12T08:07:09.330Z,93.80
2023-03-12T08:09:34.903Z,93.30
2023-03-12T08:11:59.483Z,94.00
2023-03-12T08:14:24.030Z,93.80
2023-03-12T08:16:50.003Z,93.60
2023-03-12T08:19:14.571Z,94.10
2023-03-12T08:21:40.518Z,93.60
2023-03-12T08:24:06.560Z,93.50
2023-03-12T08:26:32.178Z,93.80
2023-03-12T08:28:56.744Z,93.80
2023-03-12T08:31:21.322Z,94.00
2023-03-12T08:33:47.048Z,93.70
2023-03-12T08:36:11.710Z,93.70
2023-03-12T08:38:36.149Z,93.20
2023-03-12T08:41:03.470Z,93.00
2023-03-12T08:43:29.659Z,93.00
2023-03-12T08:45:57.717Z,92.90
2023-03-12T08:48:22.143Z,92.80
2023-03-12T08:50:46.788Z,92.40
2023-03-12T08:53:11.171Z,92.60
2023-03-12T08:55:35.688Z,91.50
2023-03-12T08:58:01.896Z,91.40
2023-03-12T09:00:27.292Z,92.00
2023-03-12T09:02:52.557Z,91.90
2023-03-12T09:05:17.179Z,92.00
2023-03-12T09:07:41.749Z,92.10
2023-03-12T09:10:07.515Z,91.90
2023-03-12T09:12:32.368Z,91.30
2023-03-12T09:15:03.489Z,91.90
2023-03-12T09:17:30.763Z,91.80
2023-03-12T09:19:55.138Z,91.70
2023-03-12T09:22:19.646Z,91.90
2023-03-12T09:24:44.108Z,92.00
2023-03-12T09:27:08.649Z,91.40
2023-03-12T09:29:33.438Z,91.80
2023-03-12T09:32:00.114Z,91.80
2023-03-12T09:34:24.625Z,91.60
2023-03-12T09:36:49.306Z,91.50
2023-03-12T09:39:14.141Z,91.80
2023-03-12T09:41:41.654Z,91.70
2023-03-12T09:44:12.719Z,91.70
2023-03-12T09:46:42.499Z,91.40
2023-03-12T09:49:15.957Z,91.20
2023-03-12T09:51:45.728Z,91.40
2023-03-12T09:54:23.636Z,91.40
2023-03-12T09:56:48.552Z,91.30
2023-03-12T09:59:14.215Z,90.30
2023-03-12T10:01:43.121Z,90.80
2023-03-12T10:04:48.893Z,90.70
2023-03-12T10:07:27.963Z,90.60
2023-03-12T10:10:29.317Z,90.60
2023-03-12T10:13:18.965Z,91.20
2023-03-12T10:15:52.182Z,90.80
2023-03-12T10:18:27.940Z,90.70
2023-03-12T10:21:14.774Z,91.20
2023-03-12T10:24:07.293Z,90.90
2023-03-12T10:26:39.300Z,90.90
2023-03-12T10:29:12.591Z,91.40
2023-03-12T10:31:50.924Z,91.60
2023-03-12T10:34:20.594Z,90.70
2023-03-12T10:36:50.435Z,90.50
2023-03-12T10:39:17.458Z,90.70
2023-03-12T10:41:44.080Z,90.60
2023-03-12T10:44:11.007Z,90.60
2023-03-12T10:46:57.626Z,90.60
2023-03-12T10:49:26.739Z,90.80
2023-03-12T10:52:01.162Z,89.90
2023-03-12T10:54:32.620Z,89.10
2023-03-12T10:56:57.646Z,86.70
2023-03-12T10:59:23.475Z,87.60
2023-03-12T11:01:51.281Z,88.00
2023-03-12T11:04:23.898Z,87.90
2023-03-12T11:07:07.994Z,87.50
2023-03-12T11:09:32.644Z,86.60
2023-03-12T11:11:58.113Z,85.30
2023-03-12T11:14:23.902Z,85.80
2023-03-12T11:16:48.617Z,85.60
2023-03-12T11:19:15.729Z,84.70
2023-03-12T11:21:41.316Z,85.30
2023-03-12T11:24:12.542Z,84.90
2023-03-12T11:26:45.176Z,84.40
2023-03-12T11:29:25.340Z,85.30
2023-03-12T11:31:58.979Z,84.70
2023-03-12T11:34:27.794Z,84.00
2023-03-12T11:37:01.359Z,84.00
2023-03-12T11:39:35.091Z,84.10
2023-03-12T11:42:14.194Z,83.20
2023-03-12T11:44:51.098Z,82.30
2023-03-12T11:47:27.686Z,82.60
2023-03-12T11:50:04.246Z,82.20
2023-03-12T11:52:39.287Z,82.50
2023-03-12T11:55:34.476Z,81.20
2023-03-12T11:58:11.535Z,80.80
2023-03-12T12:00:42.776Z,79.30
2023-03-12T12:03:36.291Z,80.60
2023-03-12T12:06:06.926Z,80.40
2023-03-12T12:08:49.479Z,80.20
2023-03-12T12:11:25.092Z,80.30
2023-03-12T12:13:59.960Z,78.70
2023-03-12T12:16:40.853Z,78.20
2023-03-12T12:19:20.952Z,79.60
2023-03-12T12:22:07.701Z,79.10
2023-03-12T12:24:44.004Z,78.70
2023-03-12T12:27:20.631Z,78.90
2023-03-12T12:29:59.508Z,77.90
2023-03-12T12:32:33.720Z,77.00
2023-03-12T12:35:21.525Z,77.00
2023-03-12T12:37:52.262Z,76.40
2023-03-12T12:40:23.177Z,76.20
2023-03-12T12:43:10.655Z,76.30
2023-03-12T12:45:38.728Z,74.60
2023-03-12T12:48:06.251Z,74.40
2023-03-12T12:50:34.571Z,75.40
2023-03-12T12:53:07.015Z,75.10
2023-03-12T12:55:35.887Z,73.50
2023-03-12T12:58:04.710Z,73.40
2023-03-12T13:00:49.657Z,74.50
2023-03-12T13:03:17.753Z,74.20
2023-03-12T13:05:50.347Z,73.70
2023-03-12T13:08:33.703Z,73.00
2023-03-12T13:11:16.266Z,73.60
2023-03-12T13:13:44.851Z,74.30
2023-03-12T13:16:35.922Z,73.50
2023-03-12T13:19:00.736Z,72.00
2023-03-12T13:21:32.008Z,72.50
2023-03-12T13:24:10.967Z,72.10
2023-03-12T13:26:52.264Z,72.70
2023-03-12T13:29:24.887Z,70.70
2023-03-12T13:31:50.985Z,70.20
2023-03-12T13:34:51.280Z,69.80
2023-03-12T13:37:58.144Z,70.10
2023-03-12T13:41:00.845Z,69.50
2023-03-12T13:43:51.202Z,69.10
2023-03-12T13:46:38.577Z,69.30
2023-03-12T13:49:12.535Z,69.70
2023-03-12T13:51:46.359Z,70.40
2023-03-12T13:54:18.768Z,71.20
2023-03-12T13:56:55.380Z,70.80
2023-03-12T13:59:21.204Z,71.10
2023-03-12T14:01:50.029Z,70.90
2023-03-12T14:04:19.769Z,71.10
2023-03-12T14:06:56.877Z,71.70
2023-03-12T14:09:28.883Z,71.70
2023-03-12T14:12:02.196Z,73.50
2023-03-12T14:14:48.393Z,71.50
2023-03-12T14:17:19.487Z,72.20
2023-03-12T14:19:49.323Z,72.70
2023-03-12T14:22:15.225Z,72.30
2023-03-12T14:24:43.044Z,72.80
2023-03-12T14:27:15.128Z,72.30
2023-03-12T14:29:43.581Z,71.60
2023-03-12T14:32:15.970Z,71.70
2023-03-12T14:34:44.017Z,72.00
2023-03-12T14:37:16.533Z,71.60
2023-03-12T14:39:44.643Z,71.00
2023-03-12T14:42:10.294Z,71.30
2023-03-12T14:44:36.844Z,71.70
2023-03-12T14:47:03.360Z,71.60
2023-03-12T14:49:28.244Z,71.10
2023-03-12T14:51:52.926Z,71.20
2023-03-12T14:54:20.725Z,71.20
2023-03-12T14:56:46.600Z,71.60
2023-03-12T14:59:24.339Z,71.30
2023-03-12T15:01:49.359Z,71.30
2023-03-12T15:04:18.155Z,70.80
2023-03-12T15:06:48.317Z,70.40
2023-03-12T15:09:22.110Z,70.30
2023-03-12T15:11:53.680Z,70.70
2023-03-12T15:14:18.470Z,70.30
2023-03-12T15:16:44.022Z,70.10
2023-03-12T15:19:12.730Z,70.10
2023-03-12T15:21:37.406Z,70.00
2023-03-12T15:24:02.216Z,70.00
2023-03-12T15:26:34.485Z,70.00
2023-03-12T15:29:01.127Z,69.50
2023-03-12T15:31:25.691Z,69.60
2023-03-12T15:34:03.397Z,70.20
2023-03-12T15:36:30.190Z,70.80
2023-03-12T15:38:57.080Z,71.20
2023-03-12T15:41:24.452Z,71.10
2023-03-12T15:43:53.757Z,71.70
2023-03-12T15:46:19.541Z,71.40
2023-03-12T15:48:50.398Z,71.70
2023-03-12T15:51:17.458Z,69.10
2023-03-12T15:53:42.847Z,68.90
2023-03-12T15:56:22.347Z,68.90
2023-03-12T15:58:46.861Z,69.00
2023-03-12T16:01:14.812Z,69.10
2023-03-12T16:03:39.887Z,69.20
2023-03-12T16:06:04.529Z,69.30
2023-03-12T16:08:41.108Z,69.70
2023-03-12T16:11:06.135Z,70.60
2023-03-12T16:13:33.942Z,70.70
2023-03-12T16:15:58.883Z,70.40
2023-03-12T16:18:25.130Z,72.20
2023-03-12T16:20:51.150Z,73.30
2023-03-12T16:23:17.551Z,73.90
2023-03-12T16:25:45.135Z,74.60
2023-03-12T16:28:11.796Z,75.30
2023-03-12T16:30:37.983Z,75.90
2023-03-12T16:33:08.625Z,76.40
2023-03-12T16:35:35.049Z,76.90
2023-03-12T16:38:01.112Z,77.30
2023-03-12T16:40:33.382Z,77.70
2023-03-12T16:43:02.571Z,77.30
2023-03-12T16:45:27.928Z,77.20
2023-03-12T16:47:59.207Z,77.90
2023-03-12T16:50:24.597Z,77.50
2023-03-12T16:52:51.959Z,78.00
2023-03-12T16:55:16.666Z,78.00
2023-03-12T16:57:46.514Z,77.80
2023-03-12T17:00:17.106Z,75.20
2023-03-12T17:02:41.782Z,74.70
2023-03-12T17:05:06.799Z,74.90
2023-03-12T17:07:32.869Z,75.70
2023-03-12T17:09:58.776Z,76.90
2023-03-12T17:12:30.953Z,77.50
2023-03-12T17:14:55.475Z,78.90
2023-03-12T17:17:23.145Z,78.80
2023-03-12T17:19:47.628Z,78.50
2023-03-12T17:22:12.107Z,80.10
2023-03-12T17:24:36.610Z,79.00
2023-03-12T17:27:02.626Z,79.10
2023-03-12T17:29:27.267Z,79.50
2023-03-12T17:31:52.869Z,80.70
2023-03-12T17:34:18.168Z,81.60
2023-03-12T17:36:42.590Z,81.30
2023-03-12T17:39:07.129Z,80.70
2023-03-12T17:41:33.041Z,81.30
2023-03-12T17:44:01.711Z,81.40
2023-03-12T17:46:26.235Z,81.80
2023-03-12T17:48:52.551Z,82.40
2023-03-12T17:51:17.090Z,82.40
2023-03-12T17:53:43.956Z,83.00
2023-03-12T17:56:09.416Z,83.40
2023-03-12T17:58:33.861Z,84.00
2023-03-12T18:01:02.381Z,84.10
2023-03-12T18:03:28.044Z,84.60
2023-03-12T18:05:52.856Z,81.70
2023-03-12T18:08:17.961Z,80.30
2023-03-12T18:10:43.398Z,79.90
2023-03-12T18:13:08.186Z,79.50
2023-03-12T18:15:33.751Z,79.80
2023-03-12T18:18:01.077Z,81.40
2023-03-12T18:20:36.189Z,82.70
2023-03-12T18:23:03.576Z,82.30
2023-03-12T18:25:28.084Z,83.40
2023-03-12T18:27:52.577Z,84.10
2023-03-12T18:30:18.777Z,85.30
2023-03-12T18:32:43.417Z,85.40
2023-03-12T18:35:10.971Z,86.70
2023-03-12T18:37:35.530Z,86.50
2023-03-12T18:40:00.043Z,86.90
2023-03-12T18:42:24.514Z,87.00
2023-03-12T18:44:51.144Z,87.50
2023-03-12T18:47:15.620Z,87.70
2023-03-12T18:49:40.274Z,88.10
2023-03-12T18:52:06.677Z,87.90
2023-03-12T18:54:33.738Z,87.70
2023-03-12T18:56:58.220Z,88.10
2023-03-12T18:59:22.789Z,88.20
2023-03-12T19:01:47.386Z,87.70
2023-03-12T19:04:12.698Z,87.70
2023-03-12T19:06:49.777Z,87.40
2023-03-12T19:09:16.466Z,87.30
2023-03-12T19:11:40.883Z,87.60
2023-03-12T19:14:05.589Z,87.00
2023-03-12T19:16:30.738Z,85.60
2023-03-12T19:18:55.221Z,84.60
2023-03-12T19:21:19.893Z,85.30
2023-03-12T19:23:44.588Z,86.40
2023-03-12T19:26:10.571Z,87.60
2023-03-12T19:28:35.311Z,88.40
2023-03-12T19:31:03.099Z,89.10
2023-03-12T19:33:28.595Z,89.30
2023-03-12T19:35:53.298Z,89.90
2023-03-12T19:38:17.985Z,89.30
2023-03-12T19:40:42.465Z,89.30
2023-03-12T19:43:08.612Z,88.50
2023-03-12T19:45:33.462Z,86.90
2023-03-12T19:47:58.383Z,86.60
2023-03-12T19:50:24.025Z,87.00
2023-03-12T19:52:48.990Z,88.20
2023-03-12T19:55:13.501Z,88.40
2023-03-12T19:57:37.937Z,88.30
2023-03-12T20:00:07.332Z,88.90
2023-03-12T20:02:32.640Z,87.60
2023-03-12T20:04:57.233Z,87.40
2023-03-12T20:07:21.717Z,85.70
2023-03-12T20:09:46.190Z,85.70
2023-03-12T20:12:10.732Z,86.80
2023-03-12T20:14:35.218Z,87.20
2023-03-12T20:17:01.323Z,86.80
2023-03-12T20:19:25.960Z,85.80
2023-03-12T20:21:50.556Z,86.40
2023-03-12T20:24:15.031Z,86.60
2023-03-12T20:26:41.433Z,86.80
2023-03-12T20:29:06.408Z,88.60
2023-03-12T20:31:30.885Z,88.80
2023-03-12T20:33:57.119Z,88.50
2023-03-12T20:36:23.990Z,88.70
2023-03-12T20:38:50.220Z,89.30
2023-03-12T20:41:15.748Z,90.10
2023-03-12T20:43:40.410Z,90.20
2023-03-12T20:46:05.149Z,90.30
2023-03-12T20:48:29.724Z,90.30
2023-03-12T20:50:55.749Z,90.70
2023-03-12T20:53:20.354Z,90.90
2023-03-12T20:55:45.025Z,90.90
2023-03-12T20:58:09.901Z,90.90
2023-03-12T21:00:35.431Z,91.20
2023-03-12T21:03:00.024Z,90.90
2023-03-12T21:05:25.147Z,90.90
2023-03-12T21:07:51.252Z,90.90
2023-03-12T21:10:15.755Z,91.00
2023-03-12T21:12:40.242Z,90.90
2023-03-12T21:15:07.386Z,91.00
2023-03-12T21:17:33.796Z,91.00
2023-03-12T21:19:58.295Z,91.30
2023-03-12T21:22:24.327Z,91.30
2023-03-12T21:24:50.208Z,90.70
2023-03-12T21:27:14.668Z,91.10
2023-03-12T21:29:39.115Z,91.50
2023-03-12T21:32:03.552Z,91.60
2023-03-12T21:34:30.997Z,91.70
2023-03-12T21:36:55.346Z,91.50
2023-03-12T21:39:22.973Z,91.80
2023-03-12T21:41:48.905Z,91.80
2023-03-12T21:44:16.509Z,91.40
2023-03-12T21:46:41.208Z,91.40
2023-03-12T21:49:05.839Z,91.50
2023-03-12T21:51:30.241Z,91.60
2023-03-12T21:53:56.162Z,91.80
2023-03-12T21:56:20.555Z,91.80
2023-03-12T21:58:47.750Z,91.80
2023-03-12T22:01:14.588Z,91.90
2023-03-12T22:03:40.162Z,92.00
2023-03-12T22:06:05.048Z,92.00
2023-03-12T22:08:29.664Z,92.00
2023-03-12T22:10:54.266Z,92.10
2023-03-12T22:13:18.999Z,92.40
2023-03-12T22:15:48.224Z,92.70
2023-03-12T22:18:12.732Z,93.00
2023-03-12T22:20:37.353Z,93.20
2023-03-12T22:23:01.944Z,93.60
2023-03-12T22:25:26.501Z,93.80
2023-03-12T22:27:50.946Z,93.80
2023-03-12T22:30:15.886Z,94.00
2023-03-12T22:32:41.944Z,94.10
2023-03-12T22:35:06.975Z,94.30
2023-03-12T22:37:31.401Z,94.30
2023-03-12T22:40:01.475Z,94.40
2023-03-12T22:42:25.894Z,94.50
2023-03-12T22:44:50.299Z,94.50
2023-03-12T22:47:14.866Z,94.40
2023-03-12T22:49:40.880Z,94.60
2023-03-12T22:52:05.775Z,95.00
2023-03-12T22:54:30.288Z,95.20
2023-03-12T22:56:54.855Z,94.70
2023-03-12T22:59:19.288Z,94.30
2023-03-12T23:01:43.841Z,94.10
2023-03-12T23:04:08.368Z,94.00
2023-03-12T23:06:34.244Z,93.80
2023-03-12T23:08:59.186Z,93.50
2023-03-12T23:11:25.743Z,93.50
2023-03-12T23:13:50.668Z,93.30
2023-03-12T23:16:17.186Z,93.10
2023-03-12T23:18:43.037Z,93.10
2023-03-12T23:21:10.733Z,93.10
2023-03-12T23:23:39.479Z,93.00
2023-03-12T23:26:04.219Z,92.80
2023-03-12T23:28:29.438Z,93.00
2023-03-12T23:30:57.710Z,93.10
2023-03-12T23:33:22.165Z,93.30
2023-03-12T23:35:57.587Z,94.10
2023-03-12T23:38:22.322Z,93.60
2023-03-12T23:40:48.321Z,93.40
2023-03-12T23:43:12.801Z,93.40
2023-03-12T23:45:37.199Z,94.00
2023-03-12T23:48:01.659Z,94.30
2023-03-12T23:50:26.081Z,94.50
2023-03-12T23:52:50.544Z,94.40
2023-03-12T23:55:14.871Z,94.10
2023-03-12T23:57:40.775Z,94.00
